createdAt,value
2023-02-28T00:01:30.763Z,-1.98
2023-02-28T00:03:58.921Z,-1.97
2023-02-28T00:06:27.864Z,-1.97
2023-02-28T00:08:56.273Z,-1.97
2023-02-28T00:11:24.456Z,-1.97
2023-02-28T00:13:53.102Z,-1.96
2023-02-28T00:16:23.422Z,-1.95
2023-02-28T00:18:52.026Z,-1.97
2023-02-28T00:21:21.027Z,-2.01
2023-02-28T00:23:49.426Z,-2.07
2023-02-28T00:26:18.660Z,-2.12
2023-02-28T00:28:49.527Z,-2.16
2023-02-28T00:31:17.358Z,-2.20
2023-02-28T00:33:45.130Z,-2.21
2023-02-28T00:36:12.935Z,-2.25
2023-02-28T00:38:41.879Z,-2.29
2023-02-28T00:41:10.435Z,-2.32
2023-02-28T00:43:40.418Z,-2.35
2023-02-28T00:46:08.717Z,-2.34
2023-02-28T00:48:37.487Z,-2.37
2023-02-28T00:51:05.640Z,-2.41
2023-02-28T00:53:34.542Z,-2.44
2023-02-28T00:56:02.700Z,-2.44
2023-02-28T00:58:31.476Z,-2.41
2023-02-28T01:00:59.402Z,-2.42
2023-02-28T01:03:27.241Z,-2.48
2023-02-28T01:05:55.860Z,-2.52
2023-02-28T01:08:23.623Z,-2.51
2023-02-28T01:10:52.512Z,-2.51
2023-02-28T01:13:21.738Z,-2.52
2023-02-28T01:15:56.326Z,-2.54
2023-02-28T01:18:25.653Z,-2.56
2023-02-28T01:20:54.239Z,-2.59
2023-02-28T01:23:24.545Z,-2.64
2023-02-28T01:25:53.336Z,-2.68
2023-02-28T01:28:21.655Z,-2.71
2023-02-28T01:30:51.487Z,-2.76
2023-02-28T01:33:20.179Z,-2.81
2023-02-28T01:35:48.259Z,-2.86
2023-02-28T01:38:22.589Z,-2.87
2023-02-28T01:40:51.892Z,-2.85
2023-02-28T01:43:27.605Z,-2.84
2023-02-28T01:45:57.628Z,-2.88
2023-02-28T01:48:32.624Z,-2.90
2023-02-28T01:51:06.237Z,-2.89
2023-02-28T01:53:38.654Z,-2.88
2023-02-28T01:56:10.407Z,-2.89
2023-02-28T01:58:39.418Z,-2.89
2023-02-28T02:01:07.262Z,-2.88
2023-02-28T02:03:36.727Z,-2.88
2023-02-28T02:06:05.184Z,-2.91
2023-02-28T02:08:33.134Z,-2.94
2023-02-28T02:11:02.808Z,-3.01
2023-02-28T02:13:40.188Z,-3.08
2023-02-28T02:16:27.131Z,-3.13
2023-02-28T02:18:57.493Z,-3.14
2023-02-28T02:21:44.555Z,-3.14
2023-02-28T02:24:15.188Z,-3.15
2023-02-28T02:27:03.908Z,-3.18
2023-02-28T02:29:54.989Z,-3.20
2023-02-28T02:32:50.683Z,-3.23
2023-02-28T02:35:59.852Z,-3.30
2023-02-28T02:38:36.646Z,-3.33
2023-02-28T02:41:25.954Z,-3.35
2023-02-28T02:44:20.246Z,-3.40
2023-02-28T02:46:49.801Z,-3.42
2023-02-28T02:49:25.645Z,-3.45
2023-02-28T02:51:56.316Z,-3.46
2023-02-28T02:54:34.652Z,-3.48
2023-02-28T02:57:09.749Z,-3.48
2023-02-28T02:59:40.662Z,-3.45
2023-02-28T03:02:13.799Z,-3.42
2023-02-28T03:04:50.329Z,-3.41
2023-02-28T03:07:18.292Z,-3.44
2023-02-28T03:09:57.020Z,-3.48
2023-02-28T03:12:33.524Z,-3.55
2023-02-28T03:15:22.668Z,-3.62
2023-02-28T03:18:12.657Z,-3.66
2023-02-28T03:21:19.258Z,-3.72
2023-02-28T03:23:54.641Z,-3.74
2023-02-28T03:26:28.455Z,-3.72
2023-02-28T03:29:24.664Z,-3.71
2023-02-28T03:32:22.753Z,-3.72
2023-02-28T03:35:01.746Z,-3.75
2023-02-28T03:37:32.800Z,-3.78
2023-02-28T03:40:08.296Z,-3.80
2023-02-28T03:42:39.506Z,-3.81
2023-02-28T03:45:15.188Z,-3.83
2023-02-28T03:47:51.768Z,-3.84
2023-02-28T03:50:25.231Z,-3.88
2023-02-28T03:53:21.967Z,-3.89
2023-02-28T03:55:55.216Z,-3.85
2023-02-28T03:58:55.362Z,-3.84
2023-02-28T04:01:37.090Z,-3.84
2023-02-28T04:04:05.660Z,-3.84
2023-02-28T04:06:34.889Z,-3.83
2023-02-28T04:09:04.848Z,-3.80
2023-02-28T04:11:50.632Z,-3.78
2023-02-28T04:14:18.861Z,-3.81
2023-02-28T04:16:47.017Z,-3.85
2023-02-28T04:19:15.580Z,-3.89
2023-02-28T04:21:45.194Z,-3.92
2023-02-28T04:24:22.659Z,-3.93
2023-02-28T04:26:53.249Z,-3.94
2023-02-28T04:29:24.703Z,-3.91
2023-02-28T04:31:59.058Z,-3.93
2023-02-28T04:34:28.574Z,-3.96
2023-02-28T04:37:12.041Z,-4.01
2023-02-28T04:39:40.944Z,-4.02
2023-02-28T04:42:08.976Z,-4.04
2023-02-28T04:44:37.359Z,-4.05
2023-02-28T04:47:05.233Z,-4.03
2023-02-28T04:49:33.046Z,-4.06
2023-02-28T04:52:00.930Z,-4.08
2023-02-28T04:54:29.506Z,-4.11
2023-02-28T04:56:57.372Z,-4.12
2023-02-28T04:59:25.789Z,-4.19
2023-02-28T05:01:53.875Z,-4.26
2023-02-28T05:04:22.602Z,-4.26
2023-02-28T05:06:50.735Z,-4.27
2023-02-28T05:09:18.521Z,-4.29
2023-02-28T05:11:46.313Z,-4.28
2023-02-28T05:14:15.434Z,-4.27
2023-02-28T05:16:44.301Z,-4.28
2023-02-28T05:19:12.170Z,-4.28
2023-02-28T05:21:43.050Z,-4.30
2023-02-28T05:24:13.041Z,-4.30
2023-02-28T05:26:42.879Z,-4.30
2023-02-28T05:29:11.288Z,-4.33
2023-02-28T05:31:39.595Z,-4.36
2023-02-28T05:34:08.036Z,-4.40
2023-02-28T05:36:38.118Z,-4.44
2023-02-28T05:39:13.874Z,-4.44
2023-02-28T05:41:43.351Z,-4.40
2023-02-28T05:44:11.842Z,-4.36
2023-02-28T05:46:39.702Z,-4.30
2023-02-28T05:49:08.080Z,-4.27
2023-02-28T05:51:37.657Z,-4.20
2023-02-28T05:54:05.716Z,-4.16
2023-02-28T05:56:35.696Z,-4.11
2023-02-28T05:59:03.542Z,-4.09
2023-02-28T06:01:37.976Z,-4.11
2023-02-28T06:04:10.988Z,-4.09
2023-02-28T06:06:40.612Z,-4.03
2023-02-28T06:09:08.579Z,-3.99
2023-02-28T06:11:36.411Z,-3.95
2023-02-28T06:14:04.995Z,-3.85
2023-02-28T06:16:35.520Z,-3.77
2023-02-28T06:19:05.003Z,-3.67
2023-02-28T06:21:33.186Z,-3.60
2023-02-28T06:24:01.277Z,-3.56
2023-02-28T06:26:29.305Z,-3.52
2023-02-28T06:28:57.739Z,-3.44
2023-02-28T06:31:27.114Z,-3.33
2023-02-28T06:33:55.061Z,-3.24
2023-02-28T06:36:23.567Z,-3.17
2023-02-28T06:38:55.797Z,-3.11
2023-02-28T06:41:28.689Z,-3.05
2023-02-28T06:43:57.510Z,-3.02
2023-02-28T06:46:25.376Z,-2.97
2023-02-28T06:48:53.270Z,-2.92
2023-02-28T06:51:23.392Z,-2.88
2023-02-28T06:53:52.366Z,-2.85
2023-02-28T06:56:21.454Z,-2.81
2023-02-28T06:58:51.844Z,-2.77
2023-02-28T07:01:20.985Z,-2.74
2023-02-28T07:03:53.520Z,-2.71
2023-02-28T07:06:23.739Z,-2.69
2023-02-28T07:08:53.799Z,-2.67
2023-02-28T07:11:23.819Z,-2.64
2023-02-28T07:13:52.090Z,-2.56
2023-02-28T07:16:20.210Z,-2.51
2023-02-28T07:18:48.820Z,-2.48
2023-02-28T07:21:17.102Z,-2.44
2023-02-28T07:23:44.978Z,-2.38
2023-02-28T07:26:16.855Z,-2.32
2023-02-28T07:28:46.658Z,-2.26
2023-02-28T07:31:15.421Z,-2.20
2023-02-28T07:33:44.156Z,-2.17
2023-02-28T07:36:16.446Z,-2.12
2023-02-28T07:38:48.347Z,-2.06
2023-02-28T07:41:22.138Z,-1.99
2023-02-28T07:43:50.642Z,-1.92
2023-02-28T07:46:19.545Z,-1.86
2023-02-28T07:48:47.398Z,-1.81
2023-02-28T07:51:15.416Z,-1.76
2023-02-28T07:53:43.626Z,-1.69
2023-02-28T07:56:11.887Z,-1.63
2023-02-28T07:58:40.913Z,-1.58
2023-02-28T08:01:11.534Z,-1.50
2023-02-28T08:03:40.434Z,-1.44
2023-02-28T08:06:16.276Z,-1.37
2023-02-28T08:08:45.476Z,-1.33
2023-02-28T08:11:13.370Z,-1.31
2023-02-28T08:13:41.233Z,-1.29
2023-02-28T08:16:09.013Z,-1.25
2023-02-28T08:18:37.440Z,-1.21
2023-02-28T08:21:11.891Z,-1.16
2023-02-28T08:23:40.070Z,-1.10
2023-02-28T08:26:08.544Z,-1.09
2023-02-28T08:28:36.474Z,-1.06
2023-02-28T08:31:10.203Z,-1.00
2023-02-28T08:33:40.126Z,-0.95
2023-02-28T08:36:09.747Z,-0.93
2023-02-28T08:38:38.894Z,-0.90
2023-02-28T08:41:10.003Z,-0.87
2023-02-28T08:43:39.303Z,-0.83
2023-02-28T08:46:08.320Z,-0.80
2023-02-28T08:49:03.433Z,-0.79
2023-02-28T08:51:31.616Z,-0.78
2023-02-28T08:54:01.829Z,-0.74
2023-02-28T08:56:30.016Z,-0.66
2023-02-28T08:58:58.911Z,-0.59
2023-02-28T09:01:29.951Z,-0.61
2023-02-28T09:03:59.133Z,-0.63
2023-02-28T09:06:28.715Z,-0.64
2023-02-28T09:09:00.662Z,-0.62
2023-02-28T09:11:30.150Z,-0.59
2023-02-28T09:14:01.258Z,-0.60
2023-02-28T09:16:29.168Z,-0.58
2023-02-28T09:18:57.253Z,-0.53
2023-02-28T09:21:25.243Z,-0.53
2023-02-28T09:23:54.081Z,-0.55
2023-02-28T09:26:32.480Z,-0.54
2023-02-28T09:29:07.766Z,-0.47
2023-02-28T09:31:35.605Z,-0.40
2023-02-28T09:34:05.234Z,-0.40
2023-02-28T09:36:44.854Z,-0.41
2023-02-28T09:39:16.552Z,-0.41
2023-02-28T09:41:51.170Z,-0.41
2023-02-28T09:44:30.382Z,-0.41
2023-02-28T09:47:12.413Z,-0.42
2023-02-28T09:49:45.013Z,-0.38
2023-02-28T09:52:22.652Z,-0.37
2023-02-28T09:54:51.025Z,-0.30
2023-02-28T09:57:30.854Z,-0.23
2023-02-28T10:00:22.835Z,-0.19
2023-02-28T10:02:59.284Z,-0.16
2023-02-28T10:05:54.661Z,-0.12
2023-02-28T10:08:34.221Z,-0.05
2023-02-28T10:11:07.708Z,0.04
2023-02-28T10:14:11.583Z,0.10
2023-02-28T10:17:00.721Z,0.19
2023-02-28T10:19:56.803Z,0.24
2023-02-28T10:23:08.239Z,0.28
2023-02-28T10:25:38.189Z,0.27
2023-02-28T10:28:12.721Z,0.27
2023-02-28T10:30:53.163Z,0.30
2023-02-28T10:33:41.870Z,0.35
2023-02-28T10:36:15.324Z,0.41
2023-02-28T10:38:45.168Z,0.48
2023-02-28T10:41:29.723Z,0.51
2023-02-28T10:44:19.029Z,0.58
2023-02-28T10:46:47.165Z,0.65
2023-02-28T10:49:28.041Z,0.74
2023-02-28T10:52:00.745Z,0.79
2023-02-28T10:54:34.988Z,0.81
2023-02-28T10:57:20.257Z,0.82
2023-02-28T10:59:53.839Z,0.78
2023-02-28T11:02:30.743Z,0.74
2023-02-28T11:04:59.326Z,0.70
2023-02-28T11:07:37.343Z,0.69
2023-02-28T11:10:22.720Z,0.66
2023-02-28T11:12:53.221Z,0.64
2023-02-28T11:15:26.933Z,0.67
2023-02-28T11:17:58.599Z,0.69
2023-02-28T11:20:30.607Z,0.64
2023-02-28T11:23:02.040Z,0.62
2023-02-28T11:25:32.817Z,0.63
2023-02-28T11:28:07.375Z,0.67
2023-02-28T11:30:40.619Z,0.71
2023-02-28T11:33:45.971Z,0.69
2023-02-28T11:36:22.126Z,0.68
2023-02-28T11:38:53.351Z,0.67
2023-02-28T11:41:36.041Z,0.64
2023-02-28T11:44:15.249Z,0.64
2023-02-28T11:46:54.542Z,0.66
2023-02-28T11:49:28.426Z,0.71
2023-02-28T11:52:02.320Z,0.77
2023-02-28T11:54:53.716Z,0.77
2023-02-28T11:57:40.080Z,0.80
2023-02-28T12:00:19.744Z,0.84
2023-02-28T12:02:59.866Z,0.89
2023-02-28T12:05:57.339Z,0.92
2023-02-28T12:09:03.237Z,0.98
2023-02-28T12:11:51.877Z,1.06
2023-02-28T12:14:26.089Z,1.16
2023-02-28T12:17:16.905Z,1.24
2023-02-28T12:19:56.477Z,1.28
2023-02-28T12:22:33.447Z,1.34
2023-02-28T12:25:07.362Z,1.37
2023-02-28T12:27:40.457Z,1.44
2023-02-28T12:30:23.389Z,1.49
2023-02-28T12:32:57.896Z,1.57
2023-02-28T12:35:57.087Z,1.60
2023-02-28T12:38:48.591Z,1.63
2023-02-28T12:41:42.202Z,1.64
2023-02-28T12:44:19.172Z,1.70
2023-02-28T12:46:52.062Z,1.77
2023-02-28T12:49:39.477Z,1.82
2023-02-28T12:52:12.218Z,1.87
2023-02-28T12:54:58.525Z,1.90
2023-02-28T12:57:37.996Z,1.89
2023-02-28T13:00:19.321Z,1.87
2023-02-28T13:02:50.748Z,1.85
2023-02-28T13:05:34.386Z,1.83
2023-02-28T13:08:30.114Z,1.78
2023-02-28T13:10:58.243Z,1.72
2023-02-28T13:13:32.984Z,1.71
2023-02-28T13:16:07.131Z,1.69
2023-02-28T13:18:47.448Z,1.66
2023-02-28T13:21:28.655Z,1.67
2023-02-28T13:24:05.825Z,1.73
2023-02-28T13:26:36.732Z,1.81
2023-02-28T13:29:19.995Z,1.87
2023-02-28T13:32:10.081Z,1.90
2023-02-28T13:34:48.557Z,1.88
2023-02-28T13:37:19.266Z,1.83
2023-02-28T13:39:54.422Z,1.76
2023-02-28T13:42:38.412Z,1.69
2023-02-28T13:45:07.647Z,1.60
2023-02-28T13:47:46.130Z,1.54
2023-02-28T13:50:30.219Z,1.50
2023-02-28T13:53:16.585Z,1.48
2023-02-28T13:55:54.226Z,1.48
2023-02-28T13:58:55.697Z,1.47
2023-02-28T14:01:43.112Z,1.48
2023-02-28T14:04:32.455Z,1.47
2023-02-28T14:07:03.454Z,1.47
2023-02-28T14:09:36.333Z,1.50
2023-02-28T14:12:41.916Z,1.53
2023-02-28T14:15:50.622Z,1.57
2023-02-28T14:18:26.948Z,1.61
2023-02-28T14:21:17.903Z,1.66
2023-02-28T14:24:14.385Z,1.70
2023-02-28T14:26:59.728Z,1.72
2023-02-28T14:29:30.951Z,1.71
2023-02-28T14:32:23.830Z,1.70
2023-02-28T14:35:03.753Z,1.65
2023-02-28T14:37:37.573Z,1.62
2023-02-28T14:40:15.848Z,1.58
2023-02-28T14:42:55.288Z,1.53
2023-02-28T14:45:24.307Z,1.47
2023-02-28T14:47:53.918Z,1.43
2023-02-28T14:50:25.595Z,1.41
2023-02-28T14:52:56.155Z,1.37
2023-02-28T14:55:31.526Z,1.35
2023-02-28T14:58:07.313Z,1.33
2023-02-28T15:00:47.479Z,1.30
2023-02-28T15:03:40.694Z,1.27
2023-02-28T15:09:09.524Z,1.20
2023-02-28T15:11:38.375Z,1.17
2023-02-28T15:14:06.358Z,1.16
2023-02-28T15:16:41.391Z,1.14
2023-02-28T15:19:20.523Z,1.13
2023-02-28T15:21:55.384Z,1.11
2023-02-28T15:24:51.072Z,1.09
2023-02-28T15:27:25.559Z,1.07
2023-02-28T15:30:00.557Z,1.03
2023-02-28T15:32:32.301Z,1.01
2023-02-28T15:35:23.887Z,0.97
2023-02-28T15:38:02.193Z,0.92
2023-02-28T15:40:43.247Z,0.89
2023-02-28T15:43:16.669Z,0.86
2023-02-28T15:46:02.543Z,0.82
2023-02-28T15:48:38.219Z,0.77
2023-02-28T15:51:14.420Z,0.72
2023-02-28T15:53:51.219Z,0.66
2023-02-28T15:56:26.932Z,0.60
2023-02-28T15:59:03.099Z,0.53
2023-02-28T16:01:34.370Z,0.46
2023-02-28T16:04:16.724Z,0.38
2023-02-28T16:07:00.630Z,0.31
2023-02-28T16:09:30.793Z,0.23
2023-02-28T16:12:04.279Z,0.15
2023-02-28T16:14:33.143Z,0.07
2023-02-28T16:17:25.121Z,0.01
2023-02-28T16:19:54.207Z,-0.09
2023-02-28T16:22:40.113Z,-0.17
2023-02-28T16:25:12.815Z,-0.25
2023-02-28T16:27:42.095Z,-0.32
2023-02-28T16:30:20.362Z,-0.39
2023-02-28T16:32:50.232Z,-0.45
2023-02-28T16:35:20.875Z,-0.51
2023-02-28T16:37:49.466Z,-0.58
2023-02-28T16:40:24.075Z,-0.63
2023-02-28T16:42:54.970Z,-0.66
2023-02-28T16:45:26.183Z,-0.71
2023-02-28T16:47:55.178Z,-0.78
2023-02-28T16:50:28.727Z,-0.82
2023-02-28T16:52:57.323Z,-0.85
2023-02-28T16:55:27.292Z,-0.89
2023-02-28T16:57:58.299Z,-0.93
2023-02-28T17:00:28.745Z,-0.97
2023-02-28T17:02:57.182Z,-1.00
2023-02-28T17:05:25.236Z,-1.02
2023-02-28T17:07:53.095Z,-1.06
2023-02-28T17:10:26.501Z,-1.10
2023-02-28T17:12:58.371Z,-1.11
2023-02-28T17:15:32.271Z,-1.14
2023-02-28T17:18:00.383Z,-1.17
2023-02-28T17:20:28.248Z,-1.20
2023-02-28T17:22:57.645Z,-1.24
2023-02-28T17:25:25.923Z,-1.27
2023-02-28T17:27:54.303Z,-1.29
2023-02-28T17:30:28.204Z,-1.32
2023-02-28T17:32:57.588Z,-1.37
2023-02-28T17:35:25.513Z,-1.40
2023-02-28T17:37:53.780Z,-1.42
2023-02-28T17:40:24.916Z,-1.46
2023-02-28T17:42:53.491Z,-1.49
2023-02-28T17:45:21.461Z,-1.51
2023-02-28T17:47:51.345Z,-1.53
2023-02-28T17:50:22.118Z,-1.55
2023-02-28T17:52:51.584Z,-1.56
2023-02-28T17:55:22.678Z,-1.58
2023-02-28T17:57:50.578Z,-1.63
2023-02-28T18:00:19.478Z,-1.66
2023-02-28T18:02:47.323Z,-1.68
2023-02-28T18:05:16.001Z,-1.70
2023-02-28T18:07:44.004Z,-1.73
2023-02-28T18:10:20.478Z,-1.74
2023-02-28T18:12:50.873Z,-1.77
2023-02-28T18:15:22.411Z,-1.80
2023-02-28T18:17:50.980Z,-1.80
2023-02-28T18:20:19.759Z,-1.81
2023-02-28T18:22:47.744Z,-1.83
2023-02-28T18:25:17.163Z,-1.86
2023-02-28T18:27:58.431Z,-1.89
2023-02-28T18:30:32.030Z,-1.92
2023-02-28T18:33:01.428Z,-1.94
2023-02-28T18:35:37.175Z,-1.97
2023-02-28T18:38:17.003Z,-2.01
2023-02-28T18:40:56.387Z,-2.03
2023-02-28T18:43:24.248Z,-2.05
2023-02-28T18:45:52.436Z,-2.07
2023-02-28T18:48:23.420Z,-2.10
2023-02-28T18:50:51.659Z,-2.07
2023-02-28T18:53:20.426Z,-2.04
2023-02-28T18:55:48.251Z,-2.05
2023-02-28T18:58:16.097Z,-2.05
2023-02-28T19:00:44.551Z,-2.06
2023-02-28T19:03:12.977Z,-2.11
2023-02-28T19:05:40.838Z,-2.14
2023-02-28T19:08:09.095Z,-2.19
2023-02-28T19:10:40.332Z,-2.20
2023-02-28T19:13:08.248Z,-2.20
2023-02-28T19:15:36.558Z,-2.21
2023-02-28T19:18:04.539Z,-2.25
2023-02-28T19:20:32.328Z,-2.27
2023-02-28T19:23:01.434Z,-2.29
2023-02-28T19:25:29.431Z,-2.33
2023-02-28T19:27:57.399Z,-2.37
2023-02-28T19:30:26.176Z,-2.37
2023-02-28T19:32:54.075Z,-2.39
2023-02-28T19:35:21.982Z,-2.38
2023-02-28T19:37:50.591Z,-2.37
2023-02-28T19:40:18.661Z,-2.41
2023-02-28T19:42:47.200Z,-2.44
2023-02-28T19:45:15.531Z,-2.44
2023-02-28T19:47:44.736Z,-2.47
2023-02-28T19:50:12.689Z,-2.47
2023-02-28T19:55:14.018Z,-2.54
2023-02-28T19:57:42.984Z,-2.53
2023-02-28T20:00:14.239Z,-2.54
2023-02-28T20:02:42.579Z,-2.58
2023-02-28T20:05:10.787Z,-2.63
2023-02-28T20:07:38.537Z,-2.66
2023-02-28T20:10:07.219Z,-2.69
2023-02-28T20:12:35.787Z,-2.67
2023-02-28T20:15:03.990Z,-2.69
2023-02-28T20:17:31.873Z,-2.74
2023-02-28T20:19:59.707Z,-2.75
2023-02-28T20:22:27.553Z,-2.74
2023-02-28T20:24:55.788Z,-2.76
2023-02-28T20:27:24.110Z,-2.77
2023-02-28T20:29:53.328Z,-2.77
2023-02-28T20:32:21.233Z,-2.77
2023-02-28T20:34:49.019Z,-2.79
2023-02-28T20:37:16.841Z,-2.81
2023-02-28T20:39:45.278Z,-2.86
2023-02-28T20:42:13.571Z,-2.91
2023-02-28T20:44:41.401Z,-2.92
2023-02-28T20:47:09.183Z,-2.94
2023-02-28T20:49:36.984Z,-2.99
2023-02-28T20:52:04.884Z,-3.00
2023-02-28T20:54:36.131Z,-3.04
2023-02-28T20:57:04.713Z,-3.07
2023-02-28T20:59:32.590Z,-3.07
2023-02-28T21:02:00.355Z,-3.06
2023-02-28T21:04:28.447Z,-3.07
2023-02-28T21:06:56.528Z,-3.12
2023-02-28T21:09:24.877Z,-3.14
2023-02-28T21:11:53.935Z,-3.15
2023-02-28T21:14:21.851Z,-3.15
2023-02-28T21:16:49.729Z,-3.16
2023-02-28T21:19:18.822Z,-3.18
2023-02-28T21:21:48.133Z,-3.18
2023-02-28T21:24:19.329Z,-3.20
2023-02-28T21:26:48.547Z,-3.21
2023-02-28T21:29:16.708Z,-3.24
2023-02-28T21:31:44.658Z,-3.26
2023-02-28T21:34:13.693Z,-3.27
2023-02-28T21:36:45.892Z,-3.26
2023-02-28T21:39:21.874Z,-3.25
2023-02-28T21:41:50.492Z,-3.26
2023-02-28T21:44:18.879Z,-3.28
2023-02-28T21:46:49.110Z,-3.27
2023-02-28T21:49:17.708Z,-3.29
2023-02-28T21:51:46.144Z,-3.29
2023-02-28T21:54:14.697Z,-3.34
2023-02-28T21:56:42.618Z,-3.42
2023-02-28T21:59:11.181Z,-3.46
2023-02-28T22:01:44.345Z,-3.46
2023-02-28T22:04:22.719Z,-3.47
2023-02-28T22:06:54.436Z,-3.48
2023-02-28T22:09:22.278Z,-3.51
2023-02-28T22:11:50.560Z,-3.50
2023-02-28T22:14:18.847Z,-3.52
2023-02-28T22:16:52.580Z,-3.55
2023-02-28T22:19:23.722Z,-3.52
2023-02-28T22:21:53.896Z,-3.51
2023-02-28T22:24:24.660Z,-3.55
2023-02-28T22:26:53.539Z,-3.59
2023-02-28T22:29:21.367Z,-3.62
2023-02-28T22:31:49.341Z,-3.61
2023-02-28T22:34:17.962Z,-3.61
2023-02-28T22:36:45.749Z,-3.63
2023-02-28T22:39:13.672Z,-3.61
2023-02-28T22:41:41.983Z,-3.63
2023-02-28T22:44:11.128Z,-3.64
2023-02-28T22:46:39.031Z,-3.64
2023-02-28T22:49:07.414Z,-3.64
2023-02-28T22:51:35.392Z,-3.65
2023-02-28T22:54:04.020Z,-3.67
2023-02-28T22:56:32.781Z,-3.67
2023-02-28T22:59:01.662Z,-3.70
2023-02-28T23:01:32.729Z,-3.70
2023-02-28T23:04:02.044Z,-3.74
2023-02-28T23:06:33.520Z,-3.74
2023-02-28T23:09:08.241Z,-3.73
2023-02-28T23:11:41.044Z,-3.74
2023-02-28T23:14:12.940Z,-3.75
2023-02-28T23:16:44.093Z,-3.76
2023-02-28T23:19:16.100Z,-3.81
2023-02-28T23:21:45.377Z,-3.84
2023-02-28T23:24:15.920Z,-3.84
2023-02-28T23:26:47.246Z,-3.88
2023-02-28T23:29:17.624Z,-3.94
2023-02-28T23:31:45.639Z,-3.98
2023-02-28T23:34:14.458Z,-3.98
2023-02-28T23:36:46.350Z,-3.98
2023-02-28T23:39:17.453Z,-3.99
2023-02-28T23:41:46.878Z,-4.00
2023-02-28T23:44:17.143Z,-3.97
2023-02-28T23:46:46.675Z,-3.99
2023-02-28T23:49:16.594Z,-4.03
2023-02-28T23:51:44.366Z,-4.03
2023-02-28T23:54:12.935Z,-4.00
2023-02-28T23:56:41.333Z,-4.03
2023-02-28T23:59:09.247Z,-4.07
